createdAt,value
2022-08-06T00:00:07.945Z,16.77
2022-08-06T00:02:42.287Z,16.71
2022-08-06T00:05:18.097Z,16.82
2022-08-06T00:07:53.397Z,16.44
2022-08-06T00:10:29.696Z,16.38
2022-08-06T00:13:02.237Z,16.57
2022-08-06T00:16:06.354Z,16.46
2022-08-06T00:18:24.937Z,16.54
2022-08-06T00:20:53.509Z,16.65
2022-08-06T00:23:24.617Z,16.48
2022-08-06T00:25:54.326Z,16.46
2022-08-06T00:28:31.812Z,16.24
2022-08-06T00:31:06.112Z,16.20
2022-08-06T00:33:44.346Z,16.50
2022-08-06T00:36:25.016Z,16.69
2022-08-06T00:38:54.374Z,16.37
2022-08-06T00:41:27.276Z,16.25
2022-08-06T00:44:00.239Z,16.51
2022-08-06T00:46:32.343Z,16.20
2022-08-06T00:49:10.829Z,15.98
2022-08-06T00:51:50.312Z,16.21
2022-08-06T00:54:28.964Z,15.92
2022-08-06T00:57:10.298Z,16.10
2022-08-06T00:59:43.009Z,15.79
2022-08-06T01:02:11.986Z,15.92
2022-08-06T01:04:43.365Z,16.01
2022-08-06T01:07:11.998Z,15.95
2022-08-06T01:09:46.176Z,15.64
2022-08-06T01:12:32.276Z,15.52
2022-08-06T01:15:15.629Z,15.65
2022-08-06T01:17:59.655Z,15.54
2022-08-06T01:21:57.064Z,15.64
2022-08-06T01:24:31.772Z,15.42
2022-08-06T01:27:34.489Z,15.20
2022-08-06T01:30:27.200Z,15.36
2022-08-06T01:33:15.917Z,15.09
2022-08-06T01:35:55.796Z,15.29
2022-08-06T01:38:59.713Z,15.49
2022-08-06T01:41:56.166Z,15.12
2022-08-06T01:44:34.342Z,15.14
2022-08-06T01:47:15.947Z,15.07
2022-08-06T01:50:02.398Z,15.17
2022-08-06T01:52:40.612Z,15.27
2022-08-06T01:55:18.638Z,15.28
2022-08-06T01:58:08.113Z,15.40
2022-08-06T02:00:52.587Z,15.22
2022-08-06T02:03:50.412Z,15.15
2022-08-06T02:06:36.910Z,15.10
2022-08-06T02:09:21.674Z,15.11
2022-08-06T02:12:10.802Z,15.27
2022-08-06T02:14:54.131Z,15.30
2022-08-06T02:18:03.405Z,15.10
2022-08-06T02:20:36.699Z,15.13
2022-08-06T02:23:13.762Z,14.94
2022-08-06T02:25:46.020Z,14.84
2022-08-06T02:28:27.575Z,14.90
2022-08-06T02:30:59.150Z,15.18
2022-08-06T02:33:32.478Z,14.88
2022-08-06T02:36:27.130Z,14.80
2022-08-06T02:38:59.439Z,14.78
2022-08-06T02:42:03.060Z,14.76
2022-08-06T02:44:55.051Z,14.67
2022-08-06T02:47:52.931Z,14.61
2022-08-06T02:50:30.666Z,14.85
2022-08-06T02:53:24.742Z,14.77
2022-08-06T02:56:04.878Z,14.57
2022-08-06T02:58:58.094Z,14.89
2022-08-06T03:01:39.911Z,14.80
2022-08-06T03:04:15.386Z,14.73
2022-08-06T03:06:48.717Z,14.66
2022-08-06T03:09:20.128Z,14.68
2022-08-06T03:11:51.155Z,14.59
2022-08-06T03:15:05.139Z,14.28
2022-08-06T03:17:15.583Z,14.73
2022-08-06T03:19:53.602Z,14.53
2022-08-06T03:22:35.218Z,14.41
2022-08-06T03:25:13.657Z,14.56
2022-08-06T03:27:45.032Z,14.46
2022-08-06T03:30:32.239Z,14.37
2022-08-06T03:33:42.005Z,14.24
2022-08-06T03:36:04.241Z,14.50
2022-08-06T03:38:41.953Z,14.44
2022-08-06T03:41:18.242Z,14.38
2022-08-06T03:44:02.593Z,14.53
2022-08-06T03:46:54.124Z,14.43
2022-08-06T03:49:41.680Z,14.18
2022-08-06T03:52:22.787Z,14.42
2022-08-06T03:54:56.428Z,14.33
2022-08-06T03:57:41.044Z,14.34
2022-08-06T04:00:22.522Z,14.30
2022-08-06T04:03:02.989Z,14.43
2022-08-06T04:05:34.338Z,14.48
2022-08-06T04:08:08.813Z,14.27
2022-08-06T04:10:56.814Z,14.33
2022-08-06T04:14:02.934Z,14.43
2022-08-06T04:16:32.949Z,14.46
2022-08-06T04:19:09.328Z,14.16
2022-08-06T04:22:57.759Z,14.28
2022-08-06T04:24:30.418Z,14.63
2022-08-06T04:27:09.434Z,14.80
2022-08-06T04:29:56.269Z,14.91
2022-08-06T04:32:29.709Z,14.35
2022-08-06T04:36:06.383Z,14.43
2022-08-06T04:37:56.731Z,14.47
2022-08-06T04:40:35.436Z,14.66
2022-08-06T04:43:14.153Z,14.81
2022-08-06T04:46:16.725Z,14.86
2022-08-06T04:48:40.019Z,14.63
2022-08-06T04:51:10.476Z,14.72
2022-08-06T04:53:58.086Z,14.60
2022-08-06T04:56:29.875Z,14.69
2022-08-06T04:59:07.490Z,15.07
2022-08-06T05:01:40.851Z,14.78
2022-08-06T05:04:26.746Z,14.68
2022-08-06T05:07:13.573Z,14.74
2022-08-06T05:09:44.018Z,14.78
2022-08-06T05:12:43.239Z,14.97
2022-08-06T05:15:25.045Z,14.95
2022-08-06T05:19:00.956Z,14.99
2022-08-06T05:21:06.460Z,14.85
2022-08-06T05:23:50.351Z,15.06
2022-08-06T05:26:24.586Z,15.34
2022-08-06T05:28:54.355Z,15.26
2022-08-06T05:31:38.494Z,15.17
2022-08-06T05:34:12.634Z,15.00
2022-08-06T05:36:43.837Z,14.89
2022-08-06T05:39:57.113Z,14.95
2022-08-06T05:42:00.975Z,14.92
2022-08-06T05:44:30.009Z,14.53
2022-08-06T05:47:08.617Z,14.51
2022-08-06T05:49:55.282Z,14.49
2022-08-06T05:52:47.914Z,14.50
2022-08-06T05:55:38.683Z,14.81
2022-08-06T05:58:34.693Z,15.05
2022-08-06T06:01:13.887Z,14.99
2022-08-06T06:03:44.316Z,15.22
2022-08-06T06:06:18.714Z,14.80
2022-08-06T06:08:57.969Z,15.15
2022-08-06T06:11:47.150Z,14.87
2022-08-06T06:14:45.182Z,15.21
2022-08-06T06:17:48.519Z,15.16
2022-08-06T06:21:17.506Z,15.49
2022-08-06T06:24:26.746Z,15.02
2022-08-06T06:27:36.238Z,15.53
2022-08-06T06:30:10.601Z,15.64
2022-08-06T06:32:50.084Z,15.42
2022-08-06T06:35:42.837Z,15.62
2022-08-06T06:38:58.550Z,15.90
2022-08-06T06:41:53.419Z,15.57
2022-08-06T06:46:05.387Z,15.63
2022-08-06T06:48:14.206Z,15.61
2022-08-06T06:50:48.734Z,15.43
2022-08-06T06:53:23.888Z,15.72
2022-08-06T06:56:02.636Z,16.00
2022-08-06T06:58:47.059Z,15.94
2022-08-06T07:01:28.812Z,15.87
2022-08-06T07:04:00.050Z,15.98
2022-08-06T07:06:43.759Z,16.14
2022-08-06T07:09:39.164Z,16.17
2022-08-06T07:12:20.414Z,16.37
2022-08-06T07:14:58.581Z,16.44
2022-08-06T07:17:45.203Z,16.52
2022-08-06T07:20:28.736Z,16.76
2022-08-06T07:24:03.106Z,16.17
2022-08-06T07:25:55.767Z,16.66
2022-08-06T07:28:28.758Z,16.88
2022-08-06T07:31:03.996Z,16.96
2022-08-06T07:33:42.948Z,16.59
2022-08-06T07:36:28.981Z,16.84
2022-08-06T07:39:04.258Z,16.61
2022-08-06T07:42:07.765Z,17.21
2022-08-06T07:44:29.306Z,17.35
2022-08-06T07:47:23.908Z,17.34
2022-08-06T07:49:59.715Z,17.30
2022-08-06T07:52:32.296Z,17.48
2022-08-06T07:55:03.140Z,17.70
2022-08-06T07:57:54.645Z,17.70
2022-08-06T08:00:21.895Z,17.41
2022-08-06T08:03:43.543Z,17.90
2022-08-06T08:06:21.535Z,17.75
2022-08-06T08:09:05.630Z,18.16
2022-08-06T08:12:16.286Z,18.31
2022-08-06T08:14:31.323Z,17.73
2022-08-06T08:17:01.357Z,17.91
2022-08-06T08:19:35.902Z,17.79
2022-08-06T08:22:11.465Z,18.27
2022-08-06T08:24:53.852Z,18.62
2022-08-06T08:27:23.594Z,18.86
2022-08-06T08:29:59.758Z,17.90
2022-08-06T08:32:28.571Z,18.77
2022-08-06T08:34:57.623Z,18.22
2022-08-06T08:37:32.126Z,19.08
2022-08-06T08:40:02.178Z,18.14
2022-08-06T08:42:56.695Z,18.78
2022-08-06T08:45:33.731Z,19.77
2022-08-06T08:48:06.241Z,19.23
2022-08-06T08:50:36.478Z,19.45
2022-08-06T08:53:15.308Z,18.58
2022-08-06T08:57:07.339Z,19.91
2022-08-06T08:58:46.818Z,20.31
2022-08-06T09:01:52.120Z,19.35
2022-08-06T09:04:15.448Z,19.32
2022-08-06T09:06:50.028Z,18.53
2022-08-06T09:09:19.886Z,19.40
2022-08-06T09:12:04.546Z,19.49
2022-08-06T09:14:37.190Z,20.39
2022-08-06T09:17:12.615Z,21.09
2022-08-06T09:19:42.091Z,19.73
2022-08-06T09:22:11.945Z,20.80
2022-08-06T09:24:40.994Z,20.05
2022-08-06T09:27:59.165Z,19.65
2022-08-06T09:30:25.203Z,19.92
2022-08-06T09:33:04.119Z,20.68
2022-08-06T09:36:00.172Z,21.49
2022-08-06T09:38:30.129Z,20.27
2022-08-06T09:41:15.177Z,19.27
2022-08-06T09:44:03.716Z,19.57
2022-08-06T09:46:48.598Z,19.93
2022-08-06T09:49:48.235Z,19.76
2022-08-06T09:52:18.019Z,19.83
2022-08-06T09:54:52.801Z,20.18
2022-08-06T09:57:33.277Z,21.03
2022-08-06T10:00:09.620Z,21.25
2022-08-06T10:02:45.822Z,21.76
2022-08-06T10:05:21.272Z,21.58
2022-08-06T10:08:15.312Z,21.55
2022-08-06T10:10:49.829Z,21.66
2022-08-06T10:13:20.200Z,20.94
2022-08-06T10:16:04.259Z,20.23
2022-08-06T10:18:55.191Z,20.31
2022-08-06T10:21:41.736Z,21.52
2022-08-06T10:24:12.505Z,20.61
2022-08-06T10:26:44.568Z,20.42
2022-08-06T10:29:18.844Z,20.06
2022-08-06T10:31:55.256Z,20.80
2022-08-06T10:34:31.251Z,21.20
2022-08-06T10:37:47.547Z,20.99
2022-08-06T10:40:09.515Z,20.67
2022-08-06T10:42:40.985Z,20.75
2022-08-06T10:45:14.215Z,20.59
2022-08-06T10:48:59.814Z,20.89
2022-08-06T10:50:52.424Z,20.67
2022-08-06T10:54:01.083Z,21.64
2022-08-06T10:56:28.695Z,21.33
2022-08-06T10:59:05.286Z,21.55
2022-08-06T11:02:17.987Z,20.74
2022-08-06T11:05:17.592Z,20.75
2022-08-06T11:08:23.755Z,21.34
2022-08-06T11:11:31.979Z,21.89
2022-08-06T11:14:15.115Z,22.34
2022-08-06T11:17:00.718Z,21.65
2022-08-06T11:19:56.647Z,21.92
2022-08-06T11:22:43.328Z,20.54
2022-08-06T11:25:39.369Z,21.81
2022-08-06T11:28:10.271Z,22.39
2022-08-06T11:30:55.624Z,22.46
2022-08-06T11:33:36.435Z,21.41
2022-08-06T11:36:11.277Z,22.41
2022-08-06T11:38:55.483Z,22.41
2022-08-06T11:41:51.554Z,20.95
2022-08-06T11:44:25.370Z,21.61
2022-08-06T11:47:22.963Z,21.33
2022-08-06T11:50:02.291Z,21.33
2022-08-06T11:52:39.403Z,21.19
2022-08-06T11:55:22.683Z,22.20
2022-08-06T11:58:21.786Z,23.08
2022-08-06T12:01:03.846Z,23.43
2022-08-06T12:03:52.205Z,24.01
2022-08-06T12:06:28.972Z,24.00
2022-08-06T12:09:21.319Z,24.70
2022-08-06T12:12:26.929Z,23.46
2022-08-06T12:14:57.473Z,24.44
2022-08-06T12:17:44.482Z,23.92
2022-08-06T12:20:33.856Z,23.94
2022-08-06T12:23:17.538Z,23.57
2022-08-06T12:25:49.071Z,22.08
2022-08-06T12:28:20.434Z,21.82
2022-08-06T12:30:55.447Z,22.77
2022-08-06T12:33:24.677Z,23.40
2022-08-06T12:35:59.947Z,23.25
2022-08-06T12:38:32.866Z,23.91
2022-08-06T12:41:11.000Z,22.86
2022-08-06T12:43:57.677Z,23.69
2022-08-06T12:46:29.489Z,23.11
2022-08-06T12:49:03.487Z,23.93
2022-08-06T12:51:32.377Z,23.77
2022-08-06T12:54:05.726Z,24.71
2022-08-06T12:56:39.510Z,23.18
2022-08-06T12:59:22.723Z,24.02
2022-08-06T13:02:06.955Z,23.99
2022-08-06T13:04:47.125Z,22.65
2022-08-06T13:07:16.660Z,24.19
2022-08-06T13:10:33.460Z,24.12
2022-08-06T13:14:02.529Z,24.17
2022-08-06T13:15:31.797Z,23.63
2022-08-06T13:18:41.845Z,23.92
2022-08-06T13:21:26.946Z,23.57
2022-08-06T13:24:13.464Z,24.52
2022-08-06T13:26:54.233Z,23.98
2022-08-06T13:30:33.980Z,23.91
2022-08-06T13:32:19.910Z,25.18
2022-08-06T13:35:17.086Z,25.09
2022-08-06T13:37:55.540Z,24.46
2022-08-06T13:40:41.691Z,24.21
2022-08-06T13:43:11.382Z,23.52
2022-08-06T13:46:17.104Z,23.73
2022-08-06T13:48:54.219Z,23.69
2022-08-06T13:51:28.958Z,24.49
2022-08-06T13:53:59.001Z,22.68
2022-08-06T13:56:28.541Z,22.86
2022-08-06T13:58:59.338Z,22.39
2022-08-06T14:01:44.328Z,23.24
2022-08-06T14:04:18.360Z,23.21
2022-08-06T14:06:48.844Z,22.59
2022-08-06T14:09:23.392Z,23.22
2022-08-06T14:12:01.230Z,22.60
2022-08-06T14:14:30.938Z,23.66
2022-08-06T14:17:02.622Z,23.08
2022-08-06T14:20:17.689Z,23.08
2022-08-06T14:22:19.269Z,23.40
2022-08-06T14:24:54.549Z,22.91
2022-08-06T14:27:24.028Z,23.79
2022-08-06T14:30:28.760Z,23.73
2022-08-06T14:32:47.997Z,23.35
2022-08-06T14:35:18.653Z,23.07
2022-08-06T14:37:51.386Z,24.01
2022-08-06T14:41:01.317Z,23.32
2022-08-06T14:43:56.281Z,22.90
2022-08-06T14:46:30.458Z,22.08
2022-08-06T14:49:09.434Z,22.51
2022-08-06T15:00:48.578Z,22.32
2022-08-06T15:24:42.803Z,21.74
2022-08-06T17:36:50.652Z,22.51
2022-08-06T17:39:20.033Z,21.88
2022-08-06T17:41:54.572Z,21.92
2022-08-06T17:44:22.899Z,21.93
2022-08-06T17:46:52.521Z,21.98
2022-08-06T17:49:21.590Z,21.92
2022-08-06T17:51:51.332Z,22.32
2022-08-06T17:54:46.568Z,21.85
2022-08-06T17:57:20.377Z,21.48
2022-08-06T18:00:05.478Z,21.49
2022-08-06T18:02:40.585Z,21.41
2022-08-06T18:05:35.342Z,21.44
2022-08-06T18:08:10.753Z,21.32
2022-08-06T18:10:45.116Z,21.24
2022-08-06T18:13:14.051Z,21.18
2022-08-06T18:15:49.920Z,21.21
2022-08-06T18:18:21.598Z,21.10
2022-08-06T18:20:51.072Z,21.28
2022-08-06T18:23:20.942Z,21.15
2022-08-06T18:25:56.887Z,20.89
2022-08-06T18:28:33.247Z,21.22
2022-08-06T18:31:09.313Z,21.05
2022-08-06T18:33:42.693Z,21.03
2022-08-06T18:36:16.833Z,21.06
2022-08-06T18:38:45.327Z,21.45
2022-08-06T18:41:16.763Z,21.28
2022-08-06T18:43:54.287Z,21.09
2022-08-06T18:47:00.798Z,21.50
2022-08-06T18:49:20.487Z,21.57
2022-08-06T18:51:59.497Z,21.35
2022-08-06T18:54:28.090Z,21.26
2022-08-06T18:57:00.331Z,20.80
2022-08-06T18:59:32.650Z,20.68
2022-08-06T19:02:03.475Z,20.72
2022-08-06T19:04:34.456Z,20.48
2022-08-06T19:07:08.743Z,20.60
2022-08-06T19:09:37.244Z,20.16
2022-08-06T19:12:20.473Z,20.06
2022-08-06T19:14:50.923Z,19.98
2022-08-06T19:17:47.917Z,20.00
2022-08-06T19:20:20.433Z,19.86
2022-08-06T19:22:53.524Z,19.75
2022-08-06T19:25:41.647Z,19.61
2022-08-06T19:28:35.868Z,19.53
2022-08-06T19:31:05.052Z,19.61
2022-08-06T19:33:34.725Z,19.51
2022-08-06T19:36:26.829Z,19.47
2022-08-06T19:38:55.358Z,19.52
2022-08-06T19:41:55.775Z,19.36
2022-08-06T19:44:26.721Z,19.24
2022-08-06T19:47:15.459Z,19.20
2022-08-06T19:49:52.675Z,19.23
2022-08-06T19:52:25.807Z,19.10
2022-08-06T19:54:58.199Z,19.18
2022-08-06T19:57:46.361Z,19.23
2022-08-06T20:00:51.325Z,19.42
2022-08-06T20:03:04.307Z,19.81
2022-08-06T20:06:20.232Z,19.97
2022-08-06T20:08:32.729Z,20.06
2022-08-06T20:11:09.557Z,19.90
2022-08-06T20:13:54.942Z,19.88
2022-08-06T20:16:23.172Z,19.90
2022-08-06T20:18:51.901Z,19.83
2022-08-06T20:21:42.845Z,19.63
2022-08-06T20:24:09.368Z,19.58
2022-08-06T20:26:37.644Z,19.51
2022-08-06T20:30:03.214Z,19.34
2022-08-06T20:32:22.250Z,19.29
2022-08-06T20:34:51.871Z,19.39
2022-08-06T20:37:20.438Z,19.31
2022-08-06T20:39:50.394Z,19.09
2022-08-06T20:42:18.767Z,19.22
2022-08-06T20:48:53.280Z,19.18
2022-08-06T20:51:55.991Z,19.05
2022-08-06T21:01:26.550Z,18.99
2022-08-06T21:05:15.411Z,19.17
2022-08-06T21:10:54.168Z,18.68
2022-08-06T21:13:36.004Z,18.49
2022-08-06T21:16:28.733Z,18.47
2022-08-06T21:19:01.662Z,18.30
2022-08-06T21:21:32.271Z,18.29
2022-08-06T21:24:03.109Z,18.35
2022-08-06T21:26:35.565Z,18.31
2022-08-06T21:29:41.396Z,18.38
2022-08-06T21:31:58.358Z,18.04
2022-08-06T21:34:29.872Z,18.16
2022-08-06T21:37:00.476Z,18.12
2022-08-06T21:39:57.253Z,18.04
2022-08-06T21:42:20.435Z,18.24
2022-08-06T21:44:52.157Z,17.95
2022-08-06T21:47:20.493Z,17.88
2022-08-06T21:49:59.990Z,17.68
2022-08-06T21:52:40.297Z,17.63
2022-08-06T21:56:34.924Z,17.78
2022-08-06T21:58:03.580Z,17.70
2022-08-06T22:00:46.606Z,17.55
2022-08-06T22:04:39.682Z,17.52
2022-08-06T22:06:20.438Z,17.52
2022-08-06T22:08:57.376Z,17.54
2022-08-06T22:12:37.242Z,17.64
2022-08-06T22:14:17.988Z,17.43
2022-08-06T22:16:57.348Z,17.32
2022-08-06T22:19:27.607Z,17.32
2022-08-06T22:22:07.829Z,17.31
2022-08-06T22:24:39.358Z,17.35
2022-08-06T22:27:12.765Z,17.17
2022-08-06T22:30:04.343Z,17.05
2022-08-06T22:32:36.354Z,17.13
2022-08-06T22:35:09.311Z,16.86
2022-08-06T22:38:16.042Z,16.99
2022-08-06T22:40:29.888Z,16.90
2022-08-06T22:43:17.240Z,16.93
2022-08-06T22:46:02.485Z,16.93
2022-08-06T22:48:35.493Z,16.84
2022-08-06T22:51:15.620Z,16.60
2022-08-06T22:54:27.070Z,16.68
2022-08-06T22:56:38.243Z,16.70
2022-08-06T22:59:20.358Z,16.66
2022-08-06T23:02:07.381Z,16.62
2022-08-06T23:04:46.289Z,16.48
2022-08-06T23:07:25.770Z,16.48
2022-08-06T23:10:07.158Z,16.50
2022-08-06T23:12:37.262Z,16.34
2022-08-06T23:15:29.818Z,16.33
2022-08-06T23:18:00.405Z,16.20
2022-08-06T23:20:32.712Z,16.07
2022-08-06T23:23:04.750Z,16.08
2022-08-06T23:25:59.637Z,16.12
2022-08-06T23:28:23.210Z,15.97
2022-08-06T23:30:52.293Z,16.07
2022-08-06T23:33:20.573Z,15.99
2022-08-06T23:35:48.794Z,16.11
2022-08-06T23:38:33.730Z,16.32
2022-08-06T23:41:05.202Z,16.10
2022-08-06T23:43:49.667Z,16.07
2022-08-06T23:46:19.816Z,16.02
2022-08-06T23:48:58.891Z,15.75
2022-08-06T23:51:36.150Z,15.79
2022-08-06T23:54:23.311Z,15.81
2022-08-06T23:56:57.597Z,15.97
2022-08-06T23:59:45.733Z,15.90
